Natick, MA (01760)

1:07 AM EST on February 27, 2015 (GMT -0500)
KMANATIC6 | Change Station
CLOSE
Current Station
Personal Weather Station
Location: Natick, MA
Elevation: 243 ft
Nearby Weather Stations

Elev 243 ft 42.29 °N, 71.35 °W | Updated 3 minutes ago

Overcast
Overcast
14.5 °F
Feels Like 14 °F
N
0.0
Wind Variable Wind from NE
Gusts 0.0 mph

Today
High -- | Low -- °F
--% Chance of Precip.
Yesterday
High -- | Low -- °F
Precip. -- in
6:24 AM 5:32 PM
Waxing Gibbous, 66% visible
Pressure 30.14 in
Visibility 10.0 miles
Clouds Clear
Windchill 14 °F
Dew Point 8 °F
Humidity 74%
Rainfall 0.00 in
Snow Depth Not available.
UV 0 out of 12
Pollen .40 out of 12
Air Quality Not available.
Flu Activity Not available.
METAR KOWD 270553Z 00000KT 10SM CLR M14/M14 A3014 RMK AO2 SLP207 T11391144 11067 21139 53011

More Conditions Fewer Conditions

Pressure 30.14 in
Visibility 10.0 miles
Clouds Clear
Windchill 14 °F
Dew Point 8 °F
Humidity 74%
Rainfall 0.00 in
Snow Depth Not available.
UV 0 out of 12
Pollen .40 out of 12
Air Quality Not available.
Flu Activity Not available.
METAR KOWD 270553Z 00000KT 10SM CLR M14/M14 A3014 RMK AO2 SLP207 T11391144 11067 21139 53011

More Conditions Fewer Conditions

10-Day Weather Forecast

Almanac

Astronomy

Feb. 27, 2015 Rise Set
Actual Time
Civil Twilight
Nautical Twilight
Astronomical Twilight
Moon
Length of Visible Light
Length of Day
Tomorrow will be .
, % of the Moon is Illuminated

Today's Extremes

State Highs State Lows

Community

WunderPhotos

Upload Photos

1,800,643 photos uploaded!

WunderBlogs® & News

Nearby

Air Quality

  Air Quality AQ Index Pollutant
Not available.

Snow Depth

Station Depth Elevation

Earthquake Activity

City Distance Mag. Time & Date
Minimum magnitude displayed is 2.5.

Coastal Water Temperatures

Place Temperature

Nearby Weather Stations